White Water, California
Current Conditions -  °F | °C
As of 1:53 AM on Monday 22 Dec 2014 (Local Time) from KPSP Reporting Station
Clear Clear  
Wind Chill: 52°   Ceiling: Unl
Heat Index: 52°   Visibility: 10mi
Dew Point: 46°   Wind: 3mph
Humidity: 80%   Direction: 290°WNW
Pressure: 30.04"   Gusts: NA
Location:  33.92°N, 116.64°W
Report Text: KPSP 220953Z 29003KT 10SM CLR 11/08 A3004 RMK AO2 SLP172 T01110078
Loading
Personal Weather Stations






























Interactive Weather Map New forecast layout! Learn more

10-Day Weather Forecast

Advertisements
Track Severe Weather on mobile